Time;durP1;ratioP1;P1;durP2;ratioP2;P2;SDS_P1;SDS_P2;PMS_P1;PMS_P2;Temp;Humidity;BMP_temperature;BMP_pressure;BME280_temperature;BME280_humidity;BME280_pressure;Samples;Min_cycle;Max_cycle;Signal;HPM_P1;HPM_P2
2022/02/18 00:01:39;;;;;;;13.95;6.75;;;7.90;76.00;;;;;;5117546;28;20040;-39
2022/02/18 00:04:05;;;;;;;14.13;5.93;;;7.90;75.80;;;;;;5117449;28;20054;-36
2022/02/18 00:06:31;;;;;;;10.90;5.70;;;7.90;75.70;;;;;;5117639;28;20327;-36
2022/02/18 00:08:57;;;;;;;12.68;6.32;;;7.90;75.80;;;;;;5117294;28;20047;-42
2022/02/18 00:11:23;;;;;;;10.18;6.43;;;7.90;75.60;;;;;;5117812;28;20297;-41
2022/02/18 00:13:49;;;;;;;11.40;6.32;;;7.90;75.40;;;;;;5117147;28;20044;-37
2022/02/18 00:16:15;;;;;;;11.88;6.38;;;7.90;75.20;;;;;;5117597;28;20035;-41
2022/02/18 00:18:40;;;;;;;10.95;6.53;;;7.90;75.20;;;;;;5117392;28;20114;-37
2022/02/18 00:21:06;;;;;;;12.95;5.70;;;7.90;75.00;;;;;;5117714;28;20110;-36
2022/02/18 00:23:32;;;;;;;7.45;4.97;;;7.90;75.10;;;;;;5117364;28;20058;-41
2022/02/18 00:25:58;;;;;;;10.40;5.95;;;7.90;75.20;;;;;;5117712;28;20108;-36
2022/02/18 00:28:23;;;;;;;10.38;4.93;;;7.80;75.00;;;;;;5117282;28;20027;-41
2022/02/18 00:30:49;;;;;;;8.73;4.72;;;7.80;75.00;;;;;;5116741;28;20115;-36
2022/02/18 00:33:15;;;;;;;7.40;4.65;;;7.80;75.00;;;;;;5116938;28;20031;-37
2022/02/18 00:35:41;;;;;;;8.50;4.90;;;7.70;74.90;;;;;;5117419;28;20465;-36
2022/02/18 00:38:07;;;;;;;9.48;5.80;;;7.70;74.80;;;;;;5117011;28;20030;-41
2022/02/18 00:40:33;;;;;;;8.82;5.32;;;7.70;74.80;;;;;;5117264;28;20034;-36
2022/02/18 00:42:59;;;;;;;9.20;5.10;;;7.70;74.80;;;;;;5116928;28;20035;-37
2022/02/18 00:45:26;;;;;;;13.13;4.97;;;7.60;74.80;;;;;;5117241;28;20403;-37
2022/02/18 00:47:52;;;;;;;8.60;5.50;;;7.60;74.90;;;;;;5116711;28;20085;-37
2022/02/18 00:50:22;;;;;;;10.57;5.57;;;7.60;74.90;;;;;;5116936;28;20411;-41
2022/02/18 00:52:48;;;;;;;9.38;5.35;;;7.50;74.80;;;;;;5116622;28;20035;-36
2022/02/18 00:55:15;;;;;;;9.57;5.65;;;7.50;74.90;;;;;;5117019;28;20073;-36
2022/02/18 00:57:41;;;;;;;13.07;5.65;;;7.50;74.90;;;;;;5116450;28;20042;-36
2022/02/18 01:00:09;;;;;;;9.63;5.32;;;7.50;74.90;;;;;;5117013;28;20078;-41
2022/02/18 01:02:34;;;;;;;12.63;5.95;;;7.40;74.80;;;;;;5116488;28;20024;-36
2022/02/18 01:05:00;;;;;;;7.85;4.18;;;7.40;74.80;;;;;;5116658;28;20107;-37
2022/02/18 01:07:26;;;;;;;8.32;3.92;;;7.40;74.70;;;;;;5116326;28;20031;-42
2022/02/18 01:09:53;;;;;;;7.25;3.60;;;7.40;74.70;;;;;;5116609;28;20023;-41
2022/02/18 01:12:22;;;;;;;9.20;3.70;;;7.30;74.70;;;;;;5116275;28;20035;-39
2022/02/18 01:14:48;;;;;;;8.68;3.70;;;7.30;74.60;;;;;;5116485;28;20047;-41
2022/02/18 01:17:15;;;;;;;7.20;3.85;;;7.30;74.60;;;;;;5116259;28;20031;-40
2022/02/18 01:19:41;;;;;;;6.88;3.75;;;7.20;74.40;;;;;;5116630;28;20153;-41
2022/02/18 01:22:06;;;;;;;8.27;4.15;;;7.20;74.40;;;;;;5116256;28;20032;-41
2022/02/18 01:24:33;;;;;;;5.40;3.25;;;7.20;74.40;;;;;;5116772;28;20070;-41
2022/02/18 01:26:59;;;;;;;7.13;3.60;;;7.20;74.40;;;;;;5116034;28;20047;-43
2022/02/18 01:29:24;;;;;;;4.55;3.03;;;7.10;74.50;;;;;;5121877;28;20023;-41
2022/02/18 01:31:50;;;;;;;8.60;3.47;;;7.10;74.50;;;;;;5122678;28;20053;-41
2022/02/18 01:34:15;;;;;;;4.90;3.13;;;7.10;74.50;;;;;;5123166;28;20023;-36
2022/02/18 01:36:41;;;;;;;5.72;3.10;;;7.10;74.60;;;;;;5123293;28;20040;-41
2022/02/18 01:39:07;;;;;;;5.97;4.03;;;7.00;74.60;;;;;;5123109;28;20318;-41
2022/02/18 01:41:33;;;;;;;7.25;4.15;;;7.00;74.70;;;;;;5123102;28;20046;-37
2022/02/18 01:44:00;;;;;;;8.60;4.05;;;7.00;74.70;;;;;;5122758;27;20035;-39
2022/02/18 01:46:27;;;;;;;5.82;3.60;;;7.00;74.80;;;;;;5123242;27;20040;-41
2022/02/18 01:48:54;;;;;;;5.65;3.63;;;7.00;74.90;;;;;;5122889;28;20107;-41
2022/02/18 01:51:23;;;;;;;6.03;3.53;;;7.00;74.80;;;;;;5123389;27;20065;-36
2022/02/18 01:53:49;;;;;;;7.03;3.60;;;7.00;74.80;;;;;;5122699;27;20069;-41
2022/02/18 01:56:17;;;;;;;6.85;3.60;;;7.00;74.80;;;;;;5123190;27;20035;-36
2022/02/18 01:58:43;;;;;;;6.75;3.15;;;7.00;74.90;;;;;;5122911;27;20161;-42
2022/02/18 02:01:12;;;;;;;4.63;3.00;;;7.00;75.10;;;;;;5123209;27;20156;-37
2022/02/18 02:03:39;;;;;;;5.88;2.97;;;7.00;74.90;;;;;;5122682;27;20047;-41
2022/02/18 02:06:05;;;;;;;6.32;3.00;;;7.00;75.00;;;;;;5123315;27;20112;-42
2022/02/18 02:08:35;;;;;;;6.90;3.45;;;7.00;75.00;;;;;;5122874;27;20035;-41
2022/02/18 02:11:01;;;;;;;7.88;3.65;;;7.00;75.00;;;;;;5123153;27;20028;-36
2022/02/18 02:13:29;;;;;;;7.30;2.95;;;7.10;75.10;;;;;;5122535;27;20066;-39
2022/02/18 02:15:55;;;;;;;5.97;3.45;;;7.10;75.00;;;;;;5123071;28;20080;-36
2022/02/18 02:18:21;;;;;;;5.60;3.28;;;7.10;74.80;;;;;;5121365;28;20400;-36
2022/02/18 02:20:46;;;;;;;6.00;3.25;;;7.10;74.70;;;;;;5123069;28;20075;-41
2022/02/18 02:23:12;;;;;;;5.65;3.38;;;7.10;74.60;;;;;;5122394;28;20077;-41
2022/02/18 02:25:39;;;;;;;6.20;3.20;;;7.10;74.70;;;;;;5123088;27;20422;-43
2022/02/18 02:28:05;;;;;;;8.20;3.08;;;7.10;74.80;;;;;;5122826;27;20093;-37
2022/02/18 02:30:30;;;;;;;6.05;3.42;;;7.10;74.70;;;;;;5122877;27;20039;-39
2022/02/18 02:32:56;;;;;;;7.22;3.53;;;7.10;74.50;;;;;;5122423;28;20027;-40
2022/02/18 02:35:22;;;;;;;4.90;3.45;;;7.10;74.50;;;;;;5122547;28;20031;-39
2022/02/18 02:37:47;;;;;;;6.88;3.05;;;7.10;74.40;;;;;;5122205;28;20023;-38
2022/02/18 02:40:18;;;;;;;7.05;3.53;;;7.00;74.60;;;;;;5121214;28;20023;-39
2022/02/18 02:42:44;;;;;;;6.28;3.65;;;7.00;74.60;;;;;;5119405;28;20419;-42
2022/02/18 02:45:10;;;;;;;6.82;2.97;;;7.00;74.50;;;;;;5119370;28;20359;-36
2022/02/18 02:47:38;;;;;;;5.90;3.42;;;7.00;74.50;;;;;;5119004;28;20039;-36
2022/02/18 02:50:04;;;;;;;6.88;3.53;;;7.00;74.60;;;;;;5119211;28;20067;-37
2022/02/18 02:52:30;;;;;;;7.40;3.95;;;7.00;74.70;;;;;;5118796;28;20042;-41
2022/02/18 02:54:56;;;;;;;6.95;3.42;;;7.00;74.70;;;;;;5119419;28;20110;-36
2022/02/18 02:57:22;;;;;;;5.65;3.20;;;7.00;74.60;;;;;;5118776;28;20366;-41
2022/02/18 02:59:47;;;;;;;6.95;3.78;;;7.00;74.60;;;;;;5119049;28;20099;-41
2022/02/18 03:02:13;;;;;;;4.63;3.17;;;7.00;74.80;;;;;;5118743;28;20039;-36
2022/02/18 03:04:39;;;;;;;6.65;3.08;;;7.00;74.90;;;;;;5118940;28;20032;-37
2022/02/18 03:07:04;;;;;;;5.20;3.53;;;7.00;74.90;;;;;;5118903;28;20370;-38
2022/02/18 03:09:30;;;;;;;5.25;3.13;;;7.00;75.00;;;;;;5119240;28;20024;-40
2022/02/18 03:11:55;;;;;;;4.93;3.22;;;7.00;74.80;;;;;;5118650;28;20039;-41
2022/02/18 03:14:21;;;;;;;6.50;3.35;;;7.10;74.90;;;;;;5118631;28;20119;-36
2022/02/18 03:16:47;;;;;;;8.30;4.30;;;7.10;75.00;;;;;;5118708;28;20035;-37
2022/02/18 03:19:13;;;;;;;5.85;3.08;;;7.10;74.90;;;;;;5118724;27;20444;-36
2022/02/18 03:21:38;;;;;;;6.95;3.22;;;7.10;74.90;;;;;;5118493;28;20335;-36
2022/02/18 03:24:04;;;;;;;6.03;3.55;;;7.10;74.90;;;;;;5118377;28;20076;-41
2022/02/18 03:26:30;;;;;;;7.70;4.05;;;7.10;75.00;;;;;;5118356;28;20430;-36
2022/02/18 03:28:55;;;;;;;6.25;3.63;;;7.10;75.20;;;;;;5118266;28;20034;-41
2022/02/18 03:31:21;;;;;;;7.10;4.22;;;7.10;75.90;;;;;;5118325;28;20379;-36
2022/02/18 03:33:47;;;;;;;8.75;3.88;;;7.20;75.30;;;;;;5117983;28;20042;-41
2022/02/18 03:36:12;;;;;;;10.13;4.03;;;7.20;75.20;;;;;;5118791;28;20031;-39
2022/02/18 03:38:38;;;;;;;9.10;4.43;;;7.20;75.30;;;;;;5118219;28;20024;-36
2022/02/18 03:41:05;;;;;;;10.80;5.68;;;7.20;75.20;;;;;;5118562;28;20031;-41
2022/02/18 03:43:30;;;;;;;8.45;4.45;;;7.20;75.20;;;;;;5118291;28;20036;-38
2022/02/18 03:45:56;;;;;;;7.82;4.72;;;7.30;75.30;;;;;;5118502;27;20348;-40
2022/02/18 03:48:22;;;;;;;7.15;3.72;;;7.30;75.20;;;;;;5117707;28;20101;-39
2022/02/18 03:50:48;;;;;;;7.47;3.85;;;7.40;75.10;;;;;;5117914;28;20032;-41
2022/02/18 03:53:14;;;;;;;7.22;3.65;;;7.40;75.00;;;;;;5117816;28;20081;-41
2022/02/18 03:55:40;;;;;;;6.53;3.40;;;7.40;74.90;;;;;;5118255;28;20058;-36
2022/02/18 03:58:06;;;;;;;9.52;3.55;;;7.40;74.80;;;;;;5117801;28;20035;-36
2022/02/18 04:00:32;;;;;;;7.03;3.45;;;7.50;74.90;;;;;;5118263;28;20407;-39
2022/02/18 04:02:57;;;;;;;7.18;3.10;;;7.50;74.80;;;;;;5117764;28;20044;-42
2022/02/18 04:05:23;;;;;;;4.82;3.20;;;7.50;74.70;;;;;;5117732;28;20039;-36
2022/02/18 04:07:49;;;;;;;5.55;3.20;;;7.60;74.50;;;;;;5117524;28;20514;-39
2022/02/18 04:10:14;;;;;;;4.03;2.95;;;7.60;74.50;;;;;;5117700;28;20070;-41
2022/02/18 04:12:40;;;;;;;8.02;5.82;;;7.60;74.40;;;;;;5117227;28;20080;-42
2022/02/18 04:15:06;;;;;;;4.13;2.63;;;7.60;74.20;;;;;;5117268;28;20044;-36
2022/02/18 04:17:32;;;;;;;6.60;3.08;;;7.70;74.10;;;;;;5117645;28;20028;-42
2022/02/18 04:19:58;;;;;;;4.07;2.72;;;7.70;74.10;;;;;;5117189;28;20031;-42
2022/02/18 04:22:25;;;;;;;5.53;2.60;;;7.70;74.10;;;;;;5117232;28;20049;-37
2022/02/18 04:24:51;;;;;;;4.97;2.50;;;7.70;74.00;;;;;;5117535;28;20035;-36
2022/02/18 04:27:17;;;;;;;4.60;2.70;;;7.70;73.90;;;;;;5117419;28;20101;-37
2022/02/18 04:29:43;;;;;;;4.00;2.67;;;7.70;73.80;;;;;;5117276;28;20032;-36
2022/02/18 04:32:09;;;;;;;3.80;2.60;;;7.70;73.80;;;;;;5117155;28;20063;-42
2022/02/18 04:34:34;;;;;;;4.50;2.58;;;7.70;73.60;;;;;;5117340;28;20115;-36
2022/02/18 04:37:00;;;;;;;4.63;2.80;;;7.70;73.40;;;;;;5116697;28;20031;-37
2022/02/18 04:39:25;;;;;;;4.95;3.40;;;7.70;73.60;;;;;;5116876;28;20054;-39
2022/02/18 04:41:51;;;;;;;5.05;2.90;;;7.70;73.80;;;;;;5116430;28;20524;-41
2022/02/18 04:44:18;;;;;;;7.25;3.28;;;7.70;74.10;;;;;;5117155;27;20036;-39
2022/02/18 04:46:44;;;;;;;3.67;2.58;;;7.70;74.30;;;;;;5116622;28;20083;-42
2022/02/18 04:49:10;;;;;;;4.93;2.80;;;7.70;74.50;;;;;;5116904;28;20518;-37
2022/02/18 04:51:39;;;;;;;4.13;2.75;;;7.70;74.70;;;;;;5117047;28;20118;-37
2022/02/18 04:54:05;;;;;;;7.10;3.40;;;7.70;74.70;;;;;;5116984;28;20408;-42
2022/02/18 04:56:31;;;;;;;5.15;3.03;;;7.70;74.90;;;;;;5116791;28;20039;-42
2022/02/18 04:58:57;;;;;;;10.10;3.65;;;7.70;75.10;;;;;;5116483;28;20046;-42
2022/02/18 05:01:23;;;;;;;6.72;2.72;;;7.70;75.20;;;;;;5117020;28;20411;-37
2022/02/18 05:03:50;;;;;;;7.18;3.40;;;7.60;75.20;;;;;;5115269;28;20034;-37
2022/02/18 05:06:17;;;;;;;6.65;3.22;;;7.60;75.40;;;;;;5116854;28;20040;-40
2022/02/18 05:08:42;;;;;;;6.10;3.35;;;7.50;75.40;;;;;;5116426;28;20035;-42
2022/02/18 05:11:09;;;;;;;5.68;2.70;;;7.50;75.30;;;;;;5116832;28;20034;-44
2022/02/18 05:13:35;;;;;;;5.88;3.20;;;7.50;75.30;;;;;;5116097;28;20104;-42
2022/02/18 05:16:01;;;;;;;6.13;3.03;;;7.50;75.40;;;;;;5116903;27;20350;-42
2022/02/18 05:18:27;;;;;;;7.50;3.30;;;7.40;75.30;;;;;;5116400;28;20442;-36
2022/02/18 05:20:53;;;;;;;4.90;3.40;;;7.40;75.40;;;;;;5116668;28;20027;-37
2022/02/18 05:23:18;;;;;;;6.40;4.10;;;7.30;75.40;;;;;;5116157;28;20035;-41
2022/02/18 05:25:44;;;;;;;5.00;3.70;;;7.30;75.50;;;;;;5116785;28;20031;-37
2022/02/18 05:28:10;;;;;;;8.45;4.82;;;7.30;75.80;;;;;;5116266;28;20481;-42
2022/02/18 05:30:36;;;;;;;7.93;3.22;;;7.20;75.90;;;;;;5116110;28;20416;-44
2022/02/18 05:33:02;;;;;;;6.45;3.58;;;7.20;75.70;;;;;;5116111;28;20023;-43
2022/02/18 05:35:28;;;;;;;5.13;3.45;;;7.20;75.50;;;;;;5116392;28;20023;-37
2022/02/18 05:37:54;;;;;;;6.57;3.40;;;7.20;75.60;;;;;;5115799;28;20055;-43
2022/02/18 05:40:20;;;;;;;3.40;2.63;;;7.20;75.50;;;;;;5116021;28;20028;-37
2022/02/18 05:42:45;;;;;;;5.18;3.38;;;7.20;75.40;;;;;;5115531;28;20042;-44
2022/02/18 05:45:11;;;;;;;7.00;3.17;;;7.20;75.50;;;;;;5116213;28;20028;-37
2022/02/18 05:47:38;;;;;;;6.15;3.05;;;7.20;75.70;;;;;;5116084;28;20063;-37
2022/02/18 05:50:10;;;;;;;13.98;4.20;;;7.10;75.70;;;;;;5116107;28;20468;-44
2022/02/18 05:52:36;;;;;;;14.55;6.07;;;7.10;76.10;;;;;;5116157;28;20078;-37
2022/02/18 05:55:03;;;;;;;5.35;2.95;;;7.10;76.30;;;;;;5115773;28;20051;-42
2022/02/18 05:57:28;;;;;;;3.65;2.88;;;7.00;76.30;;;;;;5116072;28;20039;-37
2022/02/18 05:59:54;;;;;;;5.15;3.40;;;7.00;76.10;;;;;;5116006;28;20020;-39
2022/02/18 06:02:20;;;;;;;4.90;3.25;;;7.00;76.30;;;;;;5114789;28;20149;-38
2022/02/18 06:04:45;;;;;;;7.07;3.92;;;7.00;76.50;;;;;;5113649;28;20020;-42
2022/02/18 06:07:11;;;;;;;4.47;3.20;;;7.00;76.60;;;;;;5115325;28;20077;-37
2022/02/18 06:09:37;;;;;;;6.90;3.03;;;7.00;76.40;;;;;;5115414;28;20038;-37
2022/02/18 06:12:03;;;;;;;4.13;2.95;;;7.00;76.50;;;;;;5115445;28;20391;-40
2022/02/18 06:14:28;;;;;;;10.93;4.38;;;7.00;76.60;;;;;;5116492;28;20067;-42
2022/02/18 06:16:54;;;;;;;8.40;3.67;;;7.00;76.90;;;;;;5119263;28;20481;-37
2022/02/18 06:19:20;;;;;;;8.52;4.65;;;7.00;76.80;;;;;;5119562;28;20028;-36
2022/02/18 06:21:45;;;;;;;7.47;3.40;;;7.00;76.80;;;;;;5119186;28;20366;-38
2022/02/18 06:24:11;;;;;;;6.32;3.70;;;7.10;76.70;;;;;;5119300;28;20019;-42
2022/02/18 06:26:37;;;;;;;8.32;2.90;;;7.10;76.50;;;;;;5119736;28;20036;-43
2022/02/18 06:29:03;;;;;;;5.22;3.33;;;7.10;76.10;;;;;;5118891;28;20023;-42
2022/02/18 06:31:29;;;;;;;10.13;4.05;;;7.10;76.00;;;;;;5119253;28;20042;-37
2022/02/18 06:33:55;;;;;;;5.75;3.72;;;7.00;75.80;;;;;;5119410;28;20020;-37
2022/02/18 06:36:21;;;;;;;6.18;3.08;;;7.10;76.00;;;;;;5119862;28;20028;-42
2022/02/18 06:38:47;;;;;;;4.63;3.03;;;7.10;75.80;;;;;;5118943;27;20051;-42
2022/02/18 06:41:14;;;;;;;12.90;3.20;;;7.10;75.50;;;;;;5119426;28;20038;-41
2022/02/18 06:43:40;;;;;;;5.57;3.40;;;7.10;75.40;;;;;;5119147;28;20035;-42
2022/02/18 06:46:06;;;;;;;7.20;3.58;;;7.20;75.30;;;;;;5119415;28;20034;-37
2022/02/18 06:48:32;;;;;;;4.72;2.97;;;7.20;75.30;;;;;;5118824;28;20416;-37
2022/02/18 06:50:57;;;;;;;5.18;3.00;;;7.30;75.00;;;;;;5119192;28;20082;-42
2022/02/18 06:53:23;;;;;;;4.88;2.90;;;7.30;74.40;;;;;;5118937;28;20419;-42
2022/02/18 06:55:49;;;;;;;7.35;3.25;;;7.30;74.20;;;;;;5119177;28;20395;-37
2022/02/18 06:58:14;;;;;;;6.65;4.00;;;7.30;74.10;;;;;;5118877;28;20068;-37
2022/02/18 07:00:40;;;;;;;9.48;3.40;;;7.30;73.90;;;;;;5118815;28;20034;-38
2022/02/18 07:03:07;;;;;;;3.88;2.60;;;7.40;73.70;;;;;;5118463;28;20046;-40
2022/02/18 07:05:33;;;;;;;3.15;2.30;;;7.40;73.30;;;;;;5118981;28;20094;-43
2022/02/18 07:08:00;;;;;;;4.55;2.58;;;7.40;73.00;;;;;;5118512;28;20323;-42
2022/02/18 07:10:25;;;;;;;6.78;3.22;;;7.40;72.40;;;;;;5117665;28;20023;-42
2022/02/18 07:12:51;;;;;;;5.57;3.05;;;7.40;72.30;;;;;;5118239;28;20020;-42
2022/02/18 07:15:17;;;;;;;3.97;2.58;;;7.40;71.90;;;;;;5118678;28;20039;-43
2022/02/18 07:17:43;;;;;;;3.47;2.35;;;7.40;71.50;;;;;;5118540;28;20435;-38
2022/02/18 07:20:10;;;;;;;16.38;2.75;;;7.40;71.00;;;;;;5118442;27;20027;-42
2022/02/18 07:22:37;;;;;;;3.63;2.53;;;7.40;70.90;;;;;;5117900;28;20039;-37
2022/02/18 07:25:04;;;;;;;6.80;2.70;;;7.40;70.80;;;;;;5115099;28;20023;-45
2022/02/18 07:27:30;;;;;;;3.92;2.22;;;7.30;71.10;;;;;;5114008;28;20355;-38
2022/02/18 07:29:56;;;;;;;7.05;3.22;;;7.30;70.90;;;;;;5117761;28;20108;-42
2022/02/18 07:32:24;;;;;;;6.13;3.05;;;7.30;71.10;;;;;;5115693;28;20357;-37
2022/02/18 07:34:51;;;;;;;4.57;2.85;;;7.30;71.00;;;;;;5117750;28;20034;-41
2022/02/18 07:37:16;;;;;;;8.52;3.08;;;7.30;71.00;;;;;;5117760;28;20023;-37
2022/02/18 07:39:42;;;;;;;7.85;3.15;;;7.30;71.00;;;;;;5117369;28;20280;-37
2022/02/18 07:42:09;;;;;;;5.75;2.95;;;7.30;70.80;;;;;;5117060;28;20035;-37
2022/02/18 07:44:35;;;;;;;5.05;2.78;;;7.30;70.60;;;;;;5117136;28;20061;-37
2022/02/18 07:47:01;;;;;;;8.20;3.55;;;7.20;70.60;;;;;;5117291;28;20316;-36
2022/02/18 07:49:26;;;;;;;6.93;3.42;;;7.20;70.70;;;;;;5117264;28;20035;-37
2022/02/18 07:51:52;;;;;;;4.47;3.00;;;7.10;70.70;;;;;;5117206;28;20031;-43
2022/02/18 07:54:18;;;;;;;4.63;2.72;;;7.10;70.80;;;;;;5116962;28;20083;-44
2022/02/18 07:56:44;;;;;;;6.15;2.92;;;7.10;71.00;;;;;;5117011;27;20039;-38
2022/02/18 07:59:10;;;;;;;3.10;2.10;;;7.10;71.10;;;;;;5117100;28;20285;-37
2022/02/18 08:01:36;;;;;;;6.65;2.40;;;7.10;70.90;;;;;;5116693;28;20229;-37
2022/02/18 08:04:04;;;;;;;6.75;3.42;;;7.10;71.00;;;;;;5116693;28;20057;-37
2022/02/18 08:06:30;;;;;;;4.40;2.30;;;7.10;71.30;;;;;;5116697;28;20040;-37
2022/02/18 08:08:55;;;;;;;3.83;2.05;;;7.20;70.90;;;;;;5116412;28;20020;-38
2022/02/18 08:11:21;;;;;;;2.83;2.00;;;7.20;70.70;;;;;;5116910;28;20039;-37
2022/02/18 08:13:47;;;;;;;4.00;2.20;;;7.30;70.40;;;;;;5113496;28;20451;-37
2022/02/18 08:16:14;;;;;;;4.53;1.70;;;7.40;69.50;;;;;;5116772;28;20019;-42
2022/02/18 08:18:43;;;;;;;6.32;2.33;;;7.40;69.40;;;;;;5116602;28;20102;-44
2022/02/18 08:21:12;;;;;;;3.47;2.10;;;7.50;69.40;;;;;;5116858;28;20031;-38
2022/02/18 08:23:38;;;;;;;2.58;1.50;;;7.50;68.90;;;;;;5116843;28;20147;-43
2022/02/18 08:26:04;;;;;;;2.78;1.50;;;7.50;68.20;;;;;;5116659;28;20396;-43
2022/02/18 08:28:30;;;;;;;2.03;1.42;;;7.60;67.60;;;;;;5116225;28;20046;-37
2022/02/18 08:30:56;;;;;;;3.35;1.80;;;7.60;67.20;;;;;;5116891;28;20081;-37
2022/02/18 08:33:22;;;;;;;2.88;1.70;;;7.70;66.60;;;;;;5116304;28;20119;-43
2022/02/18 08:35:48;;;;;;;3.45;2.03;;;7.70;65.40;;;;;;5116578;28;20032;-43
2022/02/18 08:38:13;;;;;;;2.75;1.67;;;7.70;65.60;;;;;;5116418;28;20038;-42
2022/02/18 08:40:39;;;;;;;4.20;2.03;;;7.80;65.40;;;;;;5116167;28;20050;-37
2022/02/18 08:43:05;;;;;;;2.58;1.77;;;7.80;64.70;;;;;;5116410;28;20035;-38
2022/02/18 08:45:31;;;;;;;4.07;2.05;;;7.90;64.90;;;;;;5116050;28;20066;-38
2022/02/18 08:47:58;;;;;;;3.15;1.80;;;7.90;65.40;;;;;;5114686;28;20043;-43
2022/02/18 08:50:24;;;;;;;3.08;1.83;;;8.00;65.00;;;;;;5115324;28;20201;-38
2022/02/18 08:52:50;;;;;;;3.47;1.85;;;8.00;64.40;;;;;;5116469;28;20032;-44
2022/02/18 08:55:16;;;;;;;2.20;1.67;;;8.10;64.10;;;;;;5116083;28;20111;-43
2022/02/18 08:57:44;;;;;;;1.77;1.23;;;8.10;64.00;;;;;;5115667;28;20036;-42
2022/02/18 09:00:10;;;;;;;43.40;19.25;;;8.10;63.10;;;;;;5115678;28;20371;-44
2022/02/18 09:02:37;;;;;;;6.20;3.08;;;8.10;62.50;;;;;;5115794;28;20043;-43
2022/02/18 09:05:04;;;;;;;3.95;2.00;;;8.10;62.70;;;;;;5115692;28;20399;-38
2022/02/18 09:07:30;;;;;;;5.00;2.40;;;8.10;62.30;;;;;;5115686;28;20074;-42
2022/02/18 09:09:58;;;;;;;3.67;2.00;;;8.10;62.20;;;;;;5115734;28;20063;-38
2022/02/18 09:12:24;;;;;;;3.63;2.10;;;8.20;62.30;;;;;;5115600;28;20042;-37
2022/02/18 09:14:50;;;;;;;3.60;1.77;;;8.20;62.20;;;;;;5115547;28;20476;-38
2022/02/18 09:17:16;;;;;;;3.47;1.88;;;8.20;62.60;;;;;;5115943;28;20028;-38
2022/02/18 09:19:42;;;;;;;2.63;1.58;;;8.20;62.40;;;;;;5115386;28;20032;-44
2022/02/18 09:22:08;;;;;;;2.90;1.70;;;8.30;62.40;;;;;;5115864;28;20039;-38
2022/02/18 09:24:33;;;;;;;3.33;1.83;;;8.30;62.40;;;;;;5114939;28;20032;-37
2022/02/18 09:26:59;;;;;;;3.60;2.00;;;8.40;62.10;;;;;;5115308;28;20028;-44
2022/02/18 09:29:26;;;;;;;1.52;1.23;;;8.40;61.70;;;;;;5115615;28;20108;-43
2022/02/18 09:31:53;;;;;;;3.25;1.77;;;8.40;61.50;;;;;;5115828;28;20335;-38
2022/02/18 09:34:20;;;;;;;1.25;1.15;;;8.40;60.50;;;;;;5115270;28;20035;-38
2022/02/18 09:36:45;;;;;;;2.55;1.55;;;8.50;60.60;;;;;;5115281;28;20043;-38
2022/02/18 09:39:12;;;;;;;3.95;1.60;;;8.50;60.80;;;;;;5115257;28;20031;-42
2022/02/18 09:41:41;;;;;;;1.90;1.48;;;8.60;60.60;;;;;;5113295;28;20384;-44
2022/02/18 09:44:08;;;;;;;2.33;1.40;;;8.60;60.30;;;;;;5115213;28;20046;-46
2022/02/18 09:46:35;;;;;;;2.95;1.60;;;8.70;59.80;;;;;;5114291;28;20438;-43
2022/02/18 09:49:04;;;;;;;5.82;1.30;;;8.70;59.70;;;;;;5115459;28;20042;-38
2022/02/18 09:51:30;;;;;;;3.90;1.48;;;8.70;59.50;;;;;;5119356;28;20118;-39
2022/02/18 09:53:58;;;;;;;6.55;1.70;;;8.80;59.10;;;;;;5119587;28;20055;-38
2022/02/18 09:56:24;;;;;;;3.42;1.90;;;8.80;59.40;;;;;;5118690;28;20106;-44
2022/02/18 09:58:52;;;;;;;3.17;1.27;;;8.90;59.70;;;;;;5119298;28;20110;-44
2022/02/18 10:01:18;;;;;;;6.03;1.38;;;8.90;58.90;;;;;;5119525;28;20146;-44
2022/02/18 10:03:44;;;;;;;5.03;1.38;;;9.00;59.20;;;;;;5119006;28;20027;-37
2022/02/18 10:06:10;;;;;;;2.13;1.35;;;9.10;58.60;;;;;;5119228;28;20039;-43
2022/02/18 10:08:47;;;;;;;4.47;1.80;;;9.10;58.20;;;;;;5117411;28;20039;-43
2022/02/18 10:11:13;;;;;;;6.13;1.75;;;9.10;57.90;;;;;;5117560;28;20320;-43
2022/02/18 10:13:40;;;;;;;18.92;8.05;;;9.10;57.60;;;;;;5118845;28;20070;-38
2022/02/18 10:16:12;;;;;;;12.45;5.68;;;9.10;57.70;;;;;;5119499;28;20324;-43
2022/02/18 10:18:59;;;;;;;7.60;2.20;;;9.10;57.50;;;;;;5114668;28;20055;-45
2022/02/18 10:21:27;;;;;;;2.75;1.50;;;9.10;57.60;;;;;;5119427;28;20134;-41
2022/02/18 10:24:10;;;;;;;3.63;1.45;;;9.10;57.80;;;;;;5118791;28;20020;-45
2022/02/18 10:26:50;;;;;;;3.65;1.90;;;9.20;57.80;;;;;;5118826;27;20044;-47
2022/02/18 10:29:24;;;;;;;5.80;2.80;;;9.20;57.20;;;;;;5119090;28;20031;-37
2022/02/18 10:32:08;;;;;;;4.22;2.30;;;9.10;56.80;;;;;;5118242;28;20092;-43
2022/02/18 10:34:55;;;;;;;3.35;1.60;;;9.10;56.60;;;;;;5118957;28;20415;-45
2022/02/18 10:37:23;;;;;;;7.05;2.47;;;9.20;57.20;;;;;;5118720;28;20040;-38
2022/02/18 10:39:49;;;;;;;3.53;1.77;;;9.20;57.30;;;;;;5118412;28;20024;-44
2022/02/18 10:42:16;;;;;;;3.70;1.75;;;9.20;57.10;;;;;;5118288;27;20031;-38
2022/02/18 10:44:42;;;;;;;2.53;1.60;;;9.20;56.90;;;;;;5119139;28;20031;-38
2022/02/18 10:47:20;;;;;;;6.07;1.52;;;9.20;56.70;;;;;;5118360;28;20319;-38
2022/02/18 10:49:46;;;;;;;5.80;2.00;;;9.20;56.50;;;;;;5118668;28;20267;-43
2022/02/18 10:52:17;;;;;;;6.40;1.48;;;9.20;56.10;;;;;;5117055;28;20040;-43
2022/02/18 10:54:47;;;;;;;4.47;2.03;;;9.20;56.20;;;;;;5117185;28;20111;-42
2022/02/18 10:57:26;;;;;;;15.60;11.73;;;9.30;56.50;;;;;;5118415;28;20070;-43
2022/02/18 10:59:54;;;;;;;5.88;1.70;;;9.30;56.40;;;;;;5118548;28;20051;-37
2022/02/18 11:02:40;;;;;;;8.48;2.10;;;9.40;56.00;;;;;;5116298;27;20035;-37
2022/02/18 11:05:19;;;;;;;3.53;1.85;;;9.50;55.80;;;;;;5118299;28;20358;-44
2022/02/18 11:07:45;;;;;;;11.43;3.08;;;9.50;56.00;;;;;;5118016;28;20346;-42
2022/02/18 11:10:31;;;;;;;3.40;1.75;;;9.70;56.30;;;;;;5117754;28;20034;-44
2022/02/18 11:12:57;;;;;;;5.60;1.88;;;9.70;55.40;;;;;;5117060;28;20051;-43
2022/02/18 11:15:23;;;;;;;2.17;1.60;;;9.80;56.10;;;;;;5118378;27;20016;-38
2022/02/18 11:17:51;;;;;;;4.28;2.10;;;9.90;55.40;;;;;;5118423;28;20032;-38
2022/02/18 11:20:18;;;;;;;5.43;2.00;;;9.90;54.60;;;;;;5118000;28;20415;-43
2022/02/18 11:22:44;;;;;;;8.68;3.33;;;9.90;54.30;;;;;;5118125;28;20032;-42
2022/02/18 11:25:14;;;;;;;3.78;2.08;;;10.00;54.40;;;;;;5118141;28;20028;-38
2022/02/18 11:27:39;;;;;;;2.65;1.60;;;10.00;54.70;;;;;;5117700;28;20063;-38
2022/02/18 11:30:06;;;;;;;7.53;3.08;;;10.10;54.60;;;;;;5118072;28;20384;-38
2022/02/18 11:32:49;;;;;;;6.22;1.75;;;10.10;54.40;;;;;;5117497;28;20031;-44
2022/02/18 11:35:52;;;;;;;3.38;1.90;;;10.10;54.20;;;;;;5116829;28;20032;-43
2022/02/18 11:38:43;;;;;;;4.45;1.70;;;10.10;54.30;;;;;;5114999;28;20036;-38
2022/02/18 11:41:28;;;;;;;4.43;2.30;;;10.00;54.30;;;;;;5118153;28;20292;-38
2022/02/18 11:43:57;;;;;;;2.85;1.98;;;10.00;54.80;;;;;;5117224;28;20427;-37
2022/02/18 11:46:25;;;;;;;5.88;1.98;;;9.90;55.00;;;;;;5117673;28;20031;-43
2022/02/18 11:48:56;;;;;;;4.45;1.88;;;9.90;55.30;;;;;;5117441;28;20073;-44
2022/02/18 11:51:25;;;;;;;4.65;2.72;;;9.90;55.70;;;;;;5117600;28;20118;-38
2022/02/18 11:53:59;;;;;;;3.95;1.98;;;10.00;55.90;;;;;;5117466;28;20442;-43
2022/02/18 11:56:40;;;;;;;9.38;2.42;;;10.00;55.90;;;;;;5117568;28;20031;-43
2022/02/18 11:59:06;;;;;;;7.60;2.35;;;10.10;55.90;;;;;;5117402;28;20438;-37
2022/02/18 12:01:58;;;;;;;4.07;2.20;;;10.10;55.80;;;;;;5117131;28;20305;-43
2022/02/18 12:04:23;;;;;;;7.38;2.05;;;10.20;55.50;;;;;;5106839;28;20059;-44
2022/02/18 12:07:20;;;;;;;8.73;2.40;;;10.30;55.70;;;;;;5116652;28;20032;-44
2022/02/18 12:09:51;;;;;;;3.70;1.88;;;10.30;55.00;;;;;;5117345;28;20043;-38
2022/02/18 12:12:29;;;;;;;2.90;1.73;;;10.40;54.30;;;;;;5116520;28;20043;-43
2022/02/18 12:14:57;;;;;;;8.13;3.33;;;10.40;54.20;;;;;;5117142;28;20328;-37
2022/02/18 12:17:26;;;;;;;9.75;2.40;;;10.40;54.30;;;;;;5117100;28;20361;-47
2022/02/18 12:19:53;;;;;;;8.35;2.70;;;10.30;54.40;;;;;;5117093;28;20080;-38
2022/02/18 12:22:38;;;;;;;9.00;3.65;;;10.30;54.90;;;;;;5116733;28;20042;-38
2022/02/18 12:25:19;;;;;;;6.00;2.63;;;10.40;55.80;;;;;;5117421;28;20028;-37
2022/02/18 12:27:45;;;;;;;14.15;2.67;;;10.40;55.90;;;;;;5116959;28;20039;-38
2022/02/18 12:30:25;;;;;;;8.93;2.72;;;10.30;55.90;;;;;;5116960;28;20035;-43
2022/02/18 12:32:57;;;;;;;3.83;2.00;;;10.30;56.30;;;;;;5116758;28;20031;-38
2022/02/18 12:35:28;;;;;;;3.17;2.38;;;10.30;56.50;;;;;;5113233;28;20305;-43
2022/02/18 12:37:55;;;;;;;7.93;3.30;;;10.20;56.60;;;;;;5116628;28;20031;-43
2022/02/18 12:40:23;;;;;;;4.88;2.63;;;10.20;56.90;;;;;;5116501;28;20119;-43
2022/02/18 12:43:07;;;;;;;8.43;2.88;;;10.20;57.10;;;;;;5116479;28;20035;-38
2022/02/18 12:45:54;;;;;;;8.77;3.03;;;10.30;57.60;;;;;;5116500;28;20032;-46
2022/02/18 12:48:30;;;;;;;4.75;2.75;;;10.40;57.00;;;;;;5115613;28;20039;-44
2022/02/18 12:50:56;;;;;;;7.20;3.70;;;10.50;56.80;;;;;;5116641;28;20035;-38
2022/02/18 12:53:22;;;;;;;13.05;3.38;;;10.50;56.50;;;;;;5115799;28;20031;-43
2022/02/18 12:55:47;;;;;;;4.93;3.00;;;10.50;56.60;;;;;;5115141;28;20027;-38
2022/02/18 12:58:14;;;;;;;3.75;2.65;;;10.50;56.70;;;;;;5116111;28;20368;-38